sensor_id;sensor_type;location;lat;lon;timestamp;pressure;altitude;pressure_sealevel;temperature;humidity
45253;BME280;63171;50.520;30.486;2023-02-23T00:00:30;100623.81;;;-2.95;54.54
45253;BME280;63171;50.520;30.486;2023-02-23T00:01:23;100622.94;;;-2.97;54.22
45253;BME280;63171;50.520;30.486;2023-02-23T00:02:13;100622.09;;;-3.01;53.89
45253;BME280;63171;50.520;30.486;2023-02-23T00:03:04;100633.06;;;-3.23;53.88
45253;BME280;63171;50.520;30.486;2023-02-23T00:03:54;100629.69;;;-3.20;54.02
45253;BME280;63171;50.520;30.486;2023-02-23T00:04:45;100626.28;;;-3.19;53.88
45253;BME280;63171;50.520;30.486;2023-02-23T00:05:36;100625.19;;;-3.50;53.68
45253;BME280;63171;50.520;30.486;2023-02-23T00:06:29;100628.69;;;-3.38;53.98
45253;BME280;63171;50.520;30.486;2023-02-23T00:07:20;100635.59;;;-3.26;53.96
45253;BME280;63171;50.520;30.486;2023-02-23T00:08:11;100631.31;;;-3.30;53.94
45253;BME280;63171;50.520;30.486;2023-02-23T00:09:01;100634.81;;;-3.20;53.90
45253;BME280;63171;50.520;30.486;2023-02-23T00:09:59;100629.69;;;-3.20;53.96
45253;BME280;63171;50.520;30.486;2023-02-23T00:10:49;100627.13;;;-3.17;53.81
45253;BME280;63171;50.520;30.486;2023-02-23T00:11:47;100625.44;;;-3.12;53.96
45253;BME280;63171;50.520;30.486;2023-02-23T00:12:36;100630.56;;;-3.11;53.60
45253;BME280;63171;50.520;30.486;2023-02-23T00:13:27;100625.34;;;-3.32;53.51
45253;BME280;63171;50.520;30.486;2023-02-23T00:14:18;100627.81;;;-3.43;53.66
45253;BME280;63171;50.520;30.486;2023-02-23T00:15:10;100631.31;;;-3.32;53.67
45253;BME280;63171;50.520;30.486;2023-02-23T00:16:03;100633.03;;;-3.28;53.83
45253;BME280;63171;50.520;30.486;2023-02-23T00:16:54;100627.06;;;-3.23;53.98
45253;BME280;63171;50.520;30.486;2023-02-23T00:17:44;100638.19;;;-3.23;53.85
45253;BME280;63171;50.520;30.486;2023-02-23T00:18:35;100627.06;;;-3.30;53.73
45253;BME280;63171;50.520;30.486;2023-02-23T00:19:33;100631.34;;;-3.25;53.76
45253;BME280;63171;50.520;30.486;2023-02-23T00:20:26;100630.50;;;-3.21;53.54
45253;BME280;63171;50.520;30.486;2023-02-23T00:21:17;100636.53;;;-3.12;53.61
45253;BME280;63171;50.520;30.486;2023-02-23T00:22:09;100633.13;;;-3.12;53.86
45253;BME280;63171;50.520;30.486;2023-02-23T00:23:00;100628.78;;;-3.27;53.82
45253;BME280;63171;50.520;30.486;2023-02-23T00:23:54;100636.47;;;-3.21;53.55
45253;BME280;63171;50.520;30.486;2023-02-23T00:24:45;100632.19;;;-3.28;53.81
45253;BME280;63171;50.520;30.486;2023-02-23T00:25:37;100633.06;;;-3.24;53.59
45253;BME280;63171;50.520;30.486;2023-02-23T00:26:30;100634.75;;;-3.25;53.74
45253;BME280;63171;50.520;30.486;2023-02-23T00:27:22;100639.91;;;-3.22;53.80
45253;BME280;63171;50.520;30.486;2023-02-23T00:28:13;100639.94;;;-3.20;53.55
45253;BME280;63171;50.520;30.486;2023-02-23T00:29:05;100636.53;;;-3.19;53.66
45253;BME280;63171;50.520;30.486;2023-02-23T00:29:56;100638.22;;;-3.17;53.74
45253;BME280;63171;50.520;30.486;2023-02-23T00:30:45;100637.38;;;-3.17;53.60
45253;BME280;63171;50.520;30.486;2023-02-23T00:31:37;100634.81;;;-3.16;53.58
45253;BME280;63171;50.520;30.486;2023-02-23T00:32:27;100638.94;;;-3.38;53.86
45253;BME280;63171;50.520;30.486;2023-02-23T00:33:18;100640.66;;;-3.38;53.80
45253;BME280;63171;50.520;30.486;2023-02-23T00:34:09;100638.94;;;-3.38;53.78
45253;BME280;63171;50.520;30.486;2023-02-23T00:35:00;100642.38;;;-3.34;53.83
45253;BME280;63171;50.520;30.486;2023-02-23T00:35:50;100643.25;;;-3.34;53.85
45253;BME280;63171;50.520;30.486;2023-02-23T00:36:41;100648.38;;;-3.32;53.89
45253;BME280;63171;50.520;30.486;2023-02-23T00:37:31;100645.78;;;-3.35;53.79
45253;BME280;63171;50.520;30.486;2023-02-23T00:38:22;100648.97;;;-3.67;53.69
45253;BME280;63171;50.520;30.486;2023-02-23T00:39:13;100651.56;;;-3.61;53.72
45253;BME280;63171;50.520;30.486;2023-02-23T00:40:11;100646.50;;;-3.54;53.74
45253;BME280;63171;50.520;30.486;2023-02-23T00:41:04;100649.16;;;-3.44;53.90
45253;BME280;63171;50.520;30.486;2023-02-23T00:41:55;100649.19;;;-3.39;53.69
45253;BME280;63171;50.520;30.486;2023-02-23T00:42:50;100650.03;;;-3.37;54.28
45253;BME280;63171;50.520;30.486;2023-02-23T00:43:40;100653.44;;;-3.40;54.32
45253;BME280;63171;50.520;30.486;2023-02-23T00:44:35;100655.16;;;-3.36;54.16
45253;BME280;63171;50.520;30.486;2023-02-23T00:45:29;100666.28;;;-3.35;54.15
45253;BME280;63171;50.520;30.486;2023-02-23T00:46:21;100657.75;;;-3.34;53.97
45253;BME280;63171;50.520;30.486;2023-02-23T00:47:12;100667.13;;;-3.38;54.26
45253;BME280;63171;50.520;30.486;2023-02-23T00:48:04;100653.44;;;-3.40;54.16
45253;BME280;63171;50.520;30.486;2023-02-23T00:48:59;100661.97;;;-3.41;54.44
45253;BME280;63171;50.520;30.486;2023-02-23T00:49:50;100660.28;;;-3.37;54.26
45253;BME280;63171;50.520;30.486;2023-02-23T00:50:41;100657.72;;;-3.42;54.81
45253;BME280;63171;50.520;30.486;2023-02-23T00:51:30;100659.41;;;-3.42;54.44
45253;BME280;63171;50.520;30.486;2023-02-23T00:52:21;100661.13;;;-3.41;54.34
45253;BME280;63171;50.520;30.486;2023-02-23T00:53:11;100664.56;;;-3.36;54.66
45253;BME280;63171;50.520;30.486;2023-02-23T00:54:03;100662.00;;;-3.38;54.40
45253;BME280;63171;50.520;30.486;2023-02-23T00:54:55;100664.56;;;-3.36;54.60
45253;BME280;63171;50.520;30.486;2023-02-23T00:55:46;100657.72;;;-3.36;54.64
45253;BME280;63171;50.520;30.486;2023-02-23T00:56:37;100663.75;;;-3.34;54.94
45253;BME280;63171;50.520;30.486;2023-02-23T00:57:28;100660.34;;;-3.33;54.72
45253;BME280;63171;50.520;30.486;2023-02-23T00:58:17;100657.78;;;-3.31;54.86
45253;BME280;63171;50.520;30.486;2023-02-23T00:59:06;100666.31;;;-3.31;54.70
45253;BME280;63171;50.520;30.486;2023-02-23T00:59:57;100668.91;;;-3.28;54.87
45253;BME280;63171;50.520;30.486;2023-02-23T01:02:35;100670.59;;;-3.33;54.96
45253;BME280;63171;50.520;30.486;2023-02-23T01:03:27;100671.44;;;-3.32;55.11
45253;BME280;63171;50.520;30.486;2023-02-23T01:04:17;100674.84;;;-3.33;55.14
45253;BME280;63171;50.520;30.486;2023-02-23T01:05:07;100671.38;;;-3.38;55.11
45253;BME280;63171;50.520;30.486;2023-02-23T01:05:58;100672.19;;;-3.47;55.22
45253;BME280;63171;50.520;30.486;2023-02-23T01:06:49;100671.25;;;-3.57;54.83
45253;BME280;63171;50.520;30.486;2023-02-23T01:07:39;100677.97;;;-3.68;55.10
45253;BME280;63171;50.520;30.486;2023-02-23T01:08:30;100675.41;;;-3.68;54.86
45253;BME280;63171;50.520;30.486;2023-02-23T01:09:21;100672.84;;;-3.72;55.11
45253;BME280;63171;50.520;30.486;2023-02-23T01:10:16;100667.72;;;-3.74;55.05
45253;BME280;63171;50.520;30.486;2023-02-23T01:11:12;100669.38;;;-3.76;55.23
45253;BME280;63171;50.520;30.486;2023-02-23T01:12:04;100670.22;;;-3.75;55.29
45253;BME280;63171;50.520;30.486;2023-02-23T01:12:56;100679.59;;;-3.77;55.28
45253;BME280;63171;50.520;30.486;2023-02-23T01:13:48;100678.84;;;-3.67;55.41
45253;BME280;63171;50.520;30.486;2023-02-23T01:14:38;100683.13;;;-3.63;55.48
45253;BME280;63171;50.520;30.486;2023-02-23T01:15:28;100686.50;;;-3.67;55.48
45253;BME280;63171;50.520;30.486;2023-02-23T01:16:20;100683.09;;;-3.66;55.84
45253;BME280;63171;50.520;30.486;2023-02-23T01:17:11;100682.25;;;-3.68;55.47
45253;BME280;63171;50.520;30.486;2023-02-23T01:18:01;100683.09;;;-3.69;55.73
45253;BME280;63171;50.520;30.486;2023-02-23T01:18:51;100683.84;;;-3.79;55.73
45253;BME280;63171;50.520;30.486;2023-02-23T01:19:42;100687.25;;;-3.79;55.66
45253;BME280;63171;50.520;30.486;2023-02-23T01:20:33;100691.53;;;-3.76;55.98
45253;BME280;63171;50.520;30.486;2023-02-23T01:21:26;100699.28;;;-3.73;55.60
45253;BME280;63171;50.520;30.486;2023-02-23T01:22:16;100693.22;;;-3.80;55.84
45253;BME280;63171;50.520;30.486;2023-02-23T01:23:09;100691.53;;;-3.78;55.86
45253;BME280;63171;50.520;30.486;2023-02-23T01:24:01;100683.81;;;-3.84;56.03
45253;BME280;63171;50.520;30.486;2023-02-23T01:24:54;100683.75;;;-3.89;55.70
45253;BME280;63171;50.520;30.486;2023-02-23T01:25:44;100687.13;;;-3.96;55.80
45253;BME280;63171;50.520;30.486;2023-02-23T01:26:37;100688.00;;;-3.92;55.74
45253;BME280;63171;50.520;30.486;2023-02-23T01:27:28;100684.59;;;-3.91;56.01
45253;BME280;63171;50.520;30.486;2023-02-23T01:28:17;100692.28;;;-3.88;55.94
45253;BME280;63171;50.520;30.486;2023-02-23T01:29:09;100694.03;;;-3.85;55.70
45253;BME280;63171;50.520;30.486;2023-02-23T01:30:00;100689.78;;;-3.87;55.75
45253;BME280;63171;50.520;30.486;2023-02-23T01:30:50;100691.41;;;-3.93;55.91
45253;BME280;63171;50.520;30.486;2023-02-23T01:31:42;100695.63;;;-3.98;56.06
45253;BME280;63171;50.520;30.486;2023-02-23T01:32:34;100698.97;;;-4.01;55.67
45253;BME280;63171;50.520;30.486;2023-02-23T01:33:24;100691.34;;;-3.99;55.66
45253;BME280;63171;50.520;30.486;2023-02-23T01:34:16;100692.22;;;-3.97;56.05
45253;BME280;63171;50.520;30.486;2023-02-23T01:35:09;100701.59;;;-3.98;56.05
45253;BME280;63171;50.520;30.486;2023-02-23T01:35:59;100698.16;;;-4.00;55.67
45253;BME280;63171;50.520;30.486;2023-02-23T01:36:49;100701.47;;;-4.08;55.73
45253;BME280;63171;50.520;30.486;2023-02-23T01:37:41;100702.31;;;-4.11;56.06
45253;BME280;63171;50.520;30.486;2023-02-23T01:38:32;100706.56;;;-4.13;55.90
45253;BME280;63171;50.520;30.486;2023-02-23T01:39:23;100699.78;;;-4.08;56.13
45253;BME280;63171;50.520;30.486;2023-02-23T01:40:16;100702.25;;;-4.14;55.96
45253;BME280;63171;50.520;30.486;2023-02-23T01:41:17;100700.53;;;-4.15;56.04
45253;BME280;63171;50.520;30.486;2023-02-23T01:42:11;100701.44;;;-4.13;56.06
45253;BME280;63171;50.520;30.486;2023-02-23T01:43:11;100704.78;;;-4.19;56.26
45253;BME280;63171;50.520;30.486;2023-02-23T01:44:04;100704.78;;;-4.19;56.32
45253;BME280;63171;50.520;30.486;2023-02-23T01:45:18;100709.06;;;-4.14;56.26
45253;BME280;63171;50.520;30.486;2023-02-23T01:46:10;100706.50;;;-4.14;56.35
45253;BME280;63171;50.520;30.486;2023-02-23T01:47:01;100704.78;;;-4.16;56.19
45253;BME280;63171;50.520;30.486;2023-02-23T01:47:53;100713.31;;;-4.17;56.30
45253;BME280;63171;50.520;30.486;2023-02-23T01:48:44;100709.94;;;-4.14;56.25
45253;BME280;63171;50.520;30.486;2023-02-23T01:49:35;100705.72;;;-4.12;56.25
45253;BME280;63171;50.520;30.486;2023-02-23T01:50:25;100710.03;;;-4.06;56.35
45253;BME280;63171;50.520;30.486;2023-02-23T01:51:18;100710.09;;;-4.00;56.33
45253;BME280;63171;50.520;30.486;2023-02-23T01:52:13;100705.00;;;-3.99;56.32
45253;BME280;63171;50.520;30.486;2023-02-23T01:53:05;100707.56;;;-3.99;56.49
45253;BME280;63171;50.520;30.486;2023-02-23T01:53:59;100713.53;;;-3.97;56.61
45253;BME280;63171;50.520;30.486;2023-02-23T01:54:52;100710.16;;;-3.94;56.35
45253;BME280;63171;50.520;30.486;2023-02-23T01:55:48;100710.13;;;-3.96;56.54
45253;BME280;63171;50.520;30.486;2023-02-23T01:56:39;100707.56;;;-3.96;56.34
45253;BME280;63171;50.520;30.486;2023-02-23T01:57:32;100713.56;;;-3.95;56.41
45253;BME280;63171;50.520;30.486;2023-02-23T01:58:23;100708.41;;;-3.98;56.43
45253;BME280;63171;50.520;30.486;2023-02-23T01:59:16;100712.59;;;-4.05;56.37
45253;BME280;63171;50.520;30.486;2023-02-23T02:00:08;100713.41;;;-4.09;56.43
45253;BME280;63171;50.520;30.486;2023-02-23T02:01:02;100721.81;;;-4.21;56.31
45253;BME280;63171;50.520;30.486;2023-02-23T02:01:53;100720.88;;;-4.27;56.11
45253;BME280;63171;50.520;30.486;2023-02-23T02:02:44;100716.63;;;-4.27;56.52
45253;BME280;63171;50.520;30.486;2023-02-23T02:03:38;100720.06;;;-4.23;56.66
45253;BME280;63171;50.520;30.486;2023-02-23T02:04:31;100718.38;;;-4.23;56.55
45253;BME280;63171;50.520;30.486;2023-02-23T02:05:31;100721.66;;;-4.34;56.18
45253;BME280;63171;50.520;30.486;2023-02-23T02:06:24;100725.06;;;-4.32;56.46
45253;BME280;63171;50.520;30.486;2023-02-23T02:07:19;100722.50;;;-4.35;56.06
45253;BME280;63171;50.520;30.486;2023-02-23T02:08:31;100727.44;;;-4.48;56.12
45253;BME280;63171;50.520;30.486;2023-02-23T02:09:23;100727.50;;;-4.41;56.09
45253;BME280;63171;50.520;30.486;2023-02-23T02:10:16;100733.56;;;-4.36;56.31
45253;BME280;63171;50.520;30.486;2023-02-23T02:11:27;100732.59;;;-4.44;56.18
45253;BME280;63171;50.520;30.486;2023-02-23T02:12:24;100728.31;;;-4.47;56.06
45253;BME280;63171;50.520;30.486;2023-02-23T02:13:18;100730.81;;;-4.52;56.23
45253;BME280;63171;50.520;30.486;2023-02-23T02:14:14;100740.25;;;-4.46;56.43
45253;BME280;63171;50.520;30.486;2023-02-23T02:15:07;100732.56;;;-4.48;56.39
45253;BME280;63171;50.520;30.486;2023-02-23T02:16:16;100730.81;;;-4.52;56.31
45253;BME280;63171;50.520;30.486;2023-02-23T02:17:20;100739.34;;;-4.51;56.20
45253;BME280;63171;50.520;30.486;2023-02-23T02:18:19;100738.50;;;-4.50;56.48
45253;BME280;63171;50.520;30.486;2023-02-23T02:21:01;100735.09;;;-4.51;56.36
45253;BME280;63171;50.520;30.486;2023-02-23T02:22:16;100735.00;;;-4.57;56.31
45253;BME280;63171;50.520;30.486;2023-02-23T02:23:35;100735.84;;;-4.58;56.34
45253;BME280;63171;50.520;30.486;2023-02-23T02:24:56;100736.69;;;-4.57;56.25
45253;BME280;63171;50.520;30.486;2023-02-23T02:26:05;100742.59;;;-4.61;56.72
45253;BME280;63171;50.520;30.486;2023-02-23T02:27:12;100747.72;;;-4.63;56.54
45253;BME280;63171;50.520;30.486;2023-02-23T02:28:26;100751.16;;;-4.58;56.24
45253;BME280;63171;50.520;30.486;2023-02-23T02:29:45;100752.03;;;-4.56;56.65
45253;BME280;63171;50.520;30.486;2023-02-23T02:30:56;100752.03;;;-4.56;56.34
45253;BME280;63171;50.520;30.486;2023-02-23T02:32:13;100749.44;;;-4.60;56.59
45253;BME280;63171;50.520;30.486;2023-02-23T02:33:33;100754.50;;;-4.65;56.50
45253;BME280;63171;50.520;30.486;2023-02-23T02:34:59;100756.91;;;-4.74;56.06
45253;BME280;63171;50.520;30.486;2023-02-23T02:37:27;100762.03;;;-4.74;56.36
45253;BME280;63171;50.520;30.486;2023-02-23T02:38:36;100759.44;;;-4.77;56.82
45253;BME280;63171;50.520;30.486;2023-02-23T02:39:35;100764.41;;;-4.86;56.26
45253;BME280;63171;50.520;30.486;2023-02-23T02:40:40;100759.25;;;-4.89;56.44
45253;BME280;63171;50.520;30.486;2023-02-23T02:41:49;100763.56;;;-4.85;56.37
45253;BME280;63171;50.520;30.486;2023-02-23T02:42:56;100761.97;;;-4.80;56.67
45253;BME280;63171;50.520;30.486;2023-02-23T02:43:56;100766.09;;;-4.87;56.34
45253;BME280;63171;50.520;30.486;2023-02-23T02:44:52;100763.50;;;-4.90;56.44
45253;BME280;63171;50.520;30.486;2023-02-23T02:45:50;100765.38;;;-4.80;56.45
45253;BME280;63171;50.520;30.486;2023-02-23T02:46:45;100764.53;;;-4.77;56.51
45253;BME280;63171;50.520;30.486;2023-02-23T02:47:41;100768.84;;;-4.73;56.72
45253;BME280;63171;50.520;30.486;2023-02-23T02:48:39;100770.50;;;-4.77;56.43
45253;BME280;63171;50.520;30.486;2023-02-23T02:49:34;100763.75;;;-4.71;56.74
45253;BME280;63171;50.520;30.486;2023-02-23T02:50:35;100768.13;;;-4.66;56.73
45253;BME280;63171;50.520;30.486;2023-02-23T02:51:33;100770.69;;;-4.64;56.65
45253;BME280;63171;50.520;30.486;2023-02-23T02:52:31;100771.53;;;-4.65;56.78
45253;BME280;63171;50.520;30.486;2023-02-23T02:53:27;100775.72;;;-4.69;56.73
45253;BME280;63171;50.520;30.486;2023-02-23T02:54:24;100768.84;;;-4.73;56.93
45253;BME280;63171;50.520;30.486;2023-02-23T02:55:20;100777.38;;;-4.72;56.46
45253;BME280;63171;50.520;30.486;2023-02-23T02:56:15;100777.34;;;-4.74;56.38
45253;BME280;63171;50.520;30.486;2023-02-23T02:57:10;100772.94;;;-4.84;56.70
45253;BME280;63171;50.520;30.486;2023-02-23T02:58:05;100778.06;;;-4.83;56.75
45253;BME280;63171;50.520;30.486;2023-02-23T02:58:56;100778.06;;;-4.83;56.50
45253;BME280;63171;50.520;30.486;2023-02-23T02:59:49;100778.06;;;-4.84;56.58
45253;BME280;63171;50.520;30.486;2023-02-23T03:01:05;100780.78;;;-4.72;57.05
45253;BME280;63171;50.520;30.486;2023-02-23T03:02:15;100781.59;;;-4.76;56.69
45253;BME280;63171;50.520;30.486;2023-02-23T03:03:31;100775.53;;;-4.81;56.90
45253;BME280;63171;50.520;30.486;2023-02-23T03:04:41;100781.53;;;-4.81;56.76
45253;BME280;63171;50.520;30.486;2023-02-23T03:05:51;100780.75;;;-4.75;56.71
45253;BME280;63171;50.520;30.486;2023-02-23T03:07:07;100785.94;;;-4.69;56.50
45253;BME280;63171;50.520;30.486;2023-02-23T03:08:22;100777.44;;;-4.68;56.84
45253;BME280;63171;50.520;30.486;2023-02-23T03:09:40;100784.28;;;-4.67;56.79
45253;BME280;63171;50.520;30.486;2023-02-23T03:10:55;100782.53;;;-4.69;56.57
45253;BME280;63171;50.520;30.486;2023-02-23T03:12:10;100782.50;;;-4.71;56.67
45253;BME280;63171;50.520;30.486;2023-02-23T03:13:35;100782.50;;;-4.72;56.85
45253;BME280;63171;50.520;30.486;2023-02-23T03:14:55;100779.06;;;-4.74;56.99
45253;BME280;63171;50.520;30.486;2023-02-23T03:16:18;100773.94;;;-4.74;56.48
45253;BME280;63171;50.520;30.486;2023-02-23T03:17:35;100782.47;;;-4.74;56.73
45253;BME280;63171;50.520;30.486;2023-02-23T03:18:59;100780.63;;;-4.83;56.54
45253;BME280;63171;50.520;30.486;2023-02-23T03:20:18;100785.81;;;-4.78;56.99
45253;BME280;63171;50.520;30.486;2023-02-23T03:21:34;100790.13;;;-4.76;56.71
45253;BME280;63171;50.520;30.486;2023-02-23T03:22:46;100788.41;;;-4.75;56.92
45253;BME280;63171;50.520;30.486;2023-02-23T03:24:05;100791.78;;;-4.78;56.84
45253;BME280;63171;50.520;30.486;2023-02-23T03:25:25;100794.38;;;-4.76;57.03
45253;BME280;63171;50.520;30.486;2023-02-23T03:26:39;100790.94;;;-4.78;56.86
45253;BME280;63171;50.520;30.486;2023-02-23T03:27:53;100792.66;;;-4.77;56.69
45253;BME280;63171;50.520;30.486;2023-02-23T03:29:09;100796.94;;;-4.76;56.96
45253;BME280;63171;50.520;30.486;2023-02-23T03:30:23;100790.88;;;-4.81;56.58
45253;BME280;63171;50.520;30.486;2023-02-23T03:31:37;100795.97;;;-4.81;57.04
45253;BME280;63171;50.520;30.486;2023-02-23T03:32:51;100790.00;;;-4.82;57.03
45253;BME280;63171;50.520;30.486;2023-02-23T03:34:08;100787.38;;;-4.88;56.77
45253;BME280;63171;50.520;30.486;2023-02-23T03:35:21;100793.25;;;-4.93;57.00
45253;BME280;63171;50.520;30.486;2023-02-23T03:36:34;100795.88;;;-4.90;56.82
45253;BME280;63171;50.520;30.486;2023-02-23T03:37:48;100793.31;;;-4.89;57.06
45253;BME280;63171;50.520;30.486;2023-02-23T03:39:07;100790.78;;;-4.89;57.06
45253;BME280;63171;50.520;30.486;2023-02-23T03:41:27;100798.41;;;-4.92;57.12
45253;BME280;63171;50.520;30.486;2023-02-23T03:42:39;100795.78;;;-4.95;56.67
45253;BME280;63171;50.520;30.486;2023-02-23T03:43:52;100799.97;;;-4.98;56.75
45253;BME280;63171;50.520;30.486;2023-02-23T03:45:05;100804.19;;;-5.02;57.00
45253;BME280;63171;50.520;30.486;2023-02-23T03:46:16;100808.50;;;-4.98;56.80
45253;BME280;63171;50.520;30.486;2023-02-23T03:47:30;100814.50;;;-4.96;57.10
45253;BME280;63171;50.520;30.486;2023-02-23T03:48:42;100814.56;;;-4.93;57.09
45253;BME280;63171;50.520;30.486;2023-02-23T03:49:53;100812.84;;;-4.94;56.87
45253;BME280;63171;50.520;30.486;2023-02-23T03:51:05;100810.25;;;-4.95;57.37
45253;BME280;63171;50.520;30.486;2023-02-23T03:52:19;100807.69;;;-4.95;56.73
45253;BME280;63171;50.520;30.486;2023-02-23T03:53:34;100817.13;;;-4.93;56.91
45253;BME280;63171;50.520;30.486;2023-02-23T03:54:52;100810.25;;;-4.95;57.10
45253;BME280;63171;50.520;30.486;2023-02-23T03:56:03;100814.50;;;-4.96;56.95
45253;BME280;63171;50.520;30.486;2023-02-23T03:57:15;100820.50;;;-4.94;56.87
45253;BME280;63171;50.520;30.486;2023-02-23T03:58:29;100816.25;;;-4.93;57.22
45253;BME280;63171;50.520;30.486;2023-02-23T03:59:43;100818.00;;;-4.89;57.50
45253;BME280;63171;50.520;30.486;2023-02-23T04:01:04;100817.19;;;-4.87;57.49
45253;BME280;63171;50.520;30.486;2023-02-23T04:02:16;100810.38;;;-4.86;57.38
45253;BME280;63171;50.520;30.486;2023-02-23T04:03:25;100815.50;;;-4.86;57.21
45253;BME280;63171;50.520;30.486;2023-02-23T04:04:35;100813.75;;;-4.89;57.01
45253;BME280;63171;50.520;30.486;2023-02-23T04:05:44;100818.00;;;-4.89;57.45
45253;BME280;63171;50.520;30.486;2023-02-23T04:06:54;100813.75;;;-4.89;57.06
45253;BME280;63171;50.520;30.486;2023-02-23T04:08:05;100811.22;;;-4.89;57.09
45253;BME280;63171;50.520;30.486;2023-02-23T04:09:14;100807.78;;;-4.89;57.32
45253;BME280;63171;50.520;30.486;2023-02-23T04:10:25;100805.25;;;-4.88;57.52
45253;BME280;63171;50.520;30.486;2023-02-23T04:11:41;100813.75;;;-4.90;57.19
45253;BME280;63171;50.520;30.486;2023-02-23T04:12:56;100812.91;;;-4.89;57.32
45253;BME280;63171;50.520;30.486;2023-02-23T04:14:08;100812.88;;;-4.91;57.23
45253;BME280;63171;50.520;30.486;2023-02-23T04:15:03;100819.63;;;-4.94;57.50
45253;BME280;63171;50.520;30.486;2023-02-23T04:15:57;100812.78;;;-4.95;57.61
45253;BME280;63171;50.520;30.486;2023-02-23T04:16:48;100816.16;;;-4.98;57.54
45253;BME280;63171;50.520;30.486;2023-02-23T04:17:38;100816.91;;;-5.05;57.31
45253;BME280;63171;50.520;30.486;2023-02-23T04:18:32;100821.06;;;-5.12;57.26
45253;BME280;63171;50.520;30.486;2023-02-23T04:19:25;100822.81;;;-5.08;57.51
45253;BME280;63171;50.520;30.486;2023-02-23T04:20:16;100820.19;;;-5.12;57.13
45253;BME280;63171;50.520;30.486;2023-02-23T04:21:06;100819.28;;;-5.16;57.37
45253;BME280;63171;50.520;30.486;2023-02-23T04:21:57;100814.91;;;-5.21;57.52
45253;BME280;63171;50.520;30.486;2023-02-23T04:22:46;100820.13;;;-5.17;57.38
45253;BME280;63171;50.520;30.486;2023-02-23T04:23:38;100821.88;;;-5.13;57.58
45253;BME280;63171;50.520;30.486;2023-02-23T04:24:28;100827.00;;;-5.11;57.44
45253;BME280;63171;50.520;30.486;2023-02-23T04:25:19;100818.53;;;-5.09;57.33
45253;BME280;63171;50.520;30.486;2023-02-23T04:26:12;100827.13;;;-5.07;57.82
45253;BME280;63171;50.520;30.486;2023-02-23T04:27:03;100822.03;;;-5.05;57.72
45253;BME280;63171;50.520;30.486;2023-02-23T04:27:53;100831.31;;;-5.09;57.65
45253;BME280;63171;50.520;30.486;2023-02-23T04:28:44;100825.34;;;-5.09;57.71
45253;BME280;63171;50.520;30.486;2023-02-23T04:29:33;100821.91;;;-5.11;57.54
45253;BME280;63171;50.520;30.486;2023-02-23T04:30:24;100826.25;;;-5.07;57.35
45253;BME280;63171;50.520;30.486;2023-02-23T04:31:16;100824.59;;;-5.03;57.60
45253;BME280;63171;50.520;30.486;2023-02-23T04:32:11;100826.34;;;-5.01;57.60
45253;BME280;63171;50.520;30.486;2023-02-23T04:33:02;100825.47;;;-5.01;57.75
45253;BME280;63171;50.520;30.486;2023-02-23T04:33:52;100826.31;;;-5.02;57.80
45253;BME280;63171;50.520;30.486;2023-02-23T04:34:42;100829.75;;;-5.00;57.51
45253;BME280;63171;50.520;30.486;2023-02-23T04:35:33;100831.38;;;-5.07;57.64
45253;BME280;63171;50.520;30.486;2023-02-23T04:36:23;100832.09;;;-5.14;57.51
45253;BME280;63171;50.520;30.486;2023-02-23T04:37:15;100831.28;;;-5.10;57.29
45253;BME280;63171;50.520;30.486;2023-02-23T04:38:05;100834.78;;;-5.07;57.51
45253;BME280;63171;50.520;30.486;2023-02-23T04:38:56;100828.03;;;-5.01;57.81
45253;BME280;63171;50.520;30.486;2023-02-23T04:39:46;100831.44;;;-5.02;57.57
45253;BME280;63171;50.520;30.486;2023-02-23T04:40:38;100833.03;;;-5.08;57.63
45253;BME280;63171;50.520;30.486;2023-02-23T04:41:29;100830.44;;;-5.11;57.42
45253;BME280;63171;50.520;30.486;2023-02-23T04:42:20;100843.22;;;-5.09;57.84
45253;BME280;63171;50.520;30.486;2023-02-23T04:43:11;100832.44;;;-5.43;56.96
45253;BME280;63171;50.520;30.486;2023-02-23T04:44:02;100836.69;;;-5.43;57.29
45253;BME280;63171;50.520;30.486;2023-02-23T04:44:52;100840.22;;;-5.35;57.41
45253;BME280;63171;50.520;30.486;2023-02-23T04:45:43;100848.94;;;-5.22;57.89
45253;BME280;63171;50.520;30.486;2023-02-23T04:46:33;100845.47;;;-5.27;57.27
45253;BME280;63171;50.520;30.486;2023-02-23T04:47:23;100847.34;;;-5.19;57.79
45253;BME280;63171;50.520;30.486;2023-02-23T04:48:13;100839.69;;;-5.17;57.55
45253;BME280;63171;50.520;30.486;2023-02-23T04:49:04;100848.25;;;-5.15;57.92
45253;BME280;63171;50.520;30.486;2023-02-23T04:49:54;100848.25;;;-5.15;58.02
45253;BME280;63171;50.520;30.486;2023-02-23T04:50:44;100856.81;;;-5.10;57.94
45253;BME280;63171;50.520;30.486;2023-02-23T04:51:35;100855.13;;;-5.10;57.93
45253;BME280;63171;50.520;30.486;2023-02-23T04:52:25;100852.56;;;-5.11;58.13
45253;BME280;63171;50.520;30.486;2023-02-23T04:53:16;100852.56;;;-5.10;57.69
45253;BME280;63171;50.520;30.486;2023-02-23T04:54:06;100845.78;;;-5.08;57.55
45253;BME280;63171;50.520;30.486;2023-02-23T04:54:57;100852.59;;;-5.08;57.92
45253;BME280;63171;50.520;30.486;2023-02-23T04:55:46;100852.56;;;-5.10;58.21
45253;BME280;63171;50.520;30.486;2023-02-23T04:56:39;100855.09;;;-5.11;57.51
45253;BME280;63171;50.520;30.486;2023-02-23T04:57:28;100857.66;;;-5.11;57.90
45253;BME280;63171;50.520;30.486;2023-02-23T04:58:19;100856.81;;;-5.12;57.87
45253;BME280;63171;50.520;30.486;2023-02-23T04:59:09;100855.94;;;-5.12;57.84
45253;BME280;63171;50.520;30.486;2023-02-23T05:00:00;100852.56;;;-5.11;58.12
45253;BME280;63171;50.520;30.486;2023-02-23T05:00:50;100857.66;;;-5.11;57.71
45253;BME280;63171;50.520;30.486;2023-02-23T05:01:41;100852.56;;;-5.10;57.59
45253;BME280;63171;50.520;30.486;2023-02-23T05:02:30;100860.59;;;-5.38;57.73
45253;BME280;63171;50.520;30.486;2023-02-23T05:03:21;100862.56;;;-5.22;57.86
45253;BME280;63171;50.520;30.486;2023-02-23T05:04:11;100855.03;;;-5.16;58.14